createdAt,value
2018-12-29T00:01:59.966Z,-0.70
2018-12-29T00:04:03.709Z,-0.80
2018-12-29T00:06:07.792Z,-0.80
2018-12-29T00:08:11.697Z,-0.80
2018-12-29T00:10:16.261Z,-0.70
2018-12-29T00:12:20.057Z,-0.70
2018-12-29T00:14:23.808Z,-0.60
2018-12-29T00:16:27.512Z,-0.70
2018-12-29T00:18:31.367Z,-0.70
2018-12-29T00:20:35.130Z,-0.70
2018-12-29T00:22:38.945Z,-0.70
2018-12-29T00:24:42.775Z,-0.60
2018-12-29T00:26:46.501Z,-0.70
2018-12-29T00:28:50.092Z,-0.80
2018-12-29T00:30:53.739Z,-0.80
2018-12-29T00:32:57.425Z,-0.70
2018-12-29T00:35:01.244Z,-0.70
2018-12-29T00:37:04.973Z,-0.70
2018-12-29T00:39:08.564Z,-0.70
2018-12-29T00:41:12.198Z,-0.70
2018-12-29T00:43:15.945Z,-0.70
2018-12-29T00:45:19.774Z,-0.70
2018-12-29T00:47:23.446Z,-0.70
2018-12-29T00:49:28.640Z,-0.80
2018-12-29T00:51:32.433Z,-0.80
2018-12-29T00:53:36.182Z,-0.70
2018-12-29T00:55:39.811Z,-0.70
2018-12-29T00:57:43.599Z,-0.70
2018-12-29T00:59:48.509Z,-0.70
2018-12-29T01:01:52.240Z,-0.70
2018-12-29T01:03:57.400Z,-0.70
2018-12-29T01:06:01.255Z,-0.70
2018-12-29T01:08:04.984Z,-0.80
2018-12-29T01:10:08.640Z,-0.70
2018-12-29T01:12:13.258Z,-0.70
2018-12-29T01:14:16.988Z,-0.80
2018-12-29T01:16:20.756Z,-0.80
2018-12-29T01:18:24.355Z,-0.70
2018-12-29T01:20:28.002Z,-0.80
2018-12-29T01:22:31.634Z,-0.80
2018-12-29T01:24:35.412Z,-0.80
2018-12-29T01:26:39.208Z,-0.70
2018-12-29T01:28:42.889Z,-0.80
2018-12-29T01:30:46.716Z,-0.80
2018-12-29T01:32:50.385Z,-0.80
2018-12-29T01:34:54.255Z,-0.80
2018-12-29T01:36:58.029Z,-0.80
2018-12-29T01:39:01.792Z,-0.80
2018-12-29T01:41:05.492Z,-0.80
2018-12-29T01:43:09.298Z,-0.80
2018-12-29T01:45:17.297Z,-0.80
2018-12-29T01:47:18.438Z,-0.80
2018-12-29T01:49:22.099Z,-0.90
2018-12-29T01:51:25.767Z,-0.80
2018-12-29T01:53:29.539Z,-0.80
2018-12-29T01:55:33.197Z,-0.90
2018-12-29T01:57:38.545Z,-0.90
2018-12-29T01:59:42.278Z,-0.80
2018-12-29T02:01:46.043Z,-0.90
2018-12-29T02:03:49.762Z,-0.80
2018-12-29T02:05:53.489Z,-0.90
2018-12-29T02:07:57.197Z,-0.90
2018-12-29T02:10:00.796Z,-0.90
2018-12-29T02:12:04.491Z,-0.90
2018-12-29T02:14:08.214Z,-0.90
2018-12-29T02:16:11.867Z,-0.90
2018-12-29T02:18:15.871Z,-0.90
2018-12-29T02:20:19.548Z,-0.90
2018-12-29T02:22:23.309Z,-0.80
2018-12-29T02:24:27.007Z,-0.80
2018-12-29T02:26:32.877Z,-0.90
2018-12-29T02:28:36.456Z,-0.90
2018-12-29T02:30:40.307Z,-0.90
2018-12-29T02:32:44.040Z,-0.90
2018-12-29T02:34:47.841Z,-0.90
2018-12-29T02:36:51.732Z,-0.90
2018-12-29T02:38:55.465Z,-0.90
2018-12-29T02:40:59.220Z,-0.90
2018-12-29T02:43:03.000Z,-0.90
2018-12-29T02:45:06.705Z,-0.90
2018-12-29T02:47:10.386Z,-0.90
2018-12-29T02:49:14.084Z,-0.90
2018-12-29T02:51:17.770Z,-0.80
2018-12-29T02:53:21.464Z,-0.80
2018-12-29T02:55:25.154Z,-0.80
2018-12-29T02:57:28.744Z,-0.80
2018-12-29T02:59:32.479Z,-0.80
2018-12-29T03:01:36.215Z,-0.80
2018-12-29T03:03:39.983Z,-0.80
2018-12-29T03:05:43.729Z,-0.80
2018-12-29T03:07:47.477Z,-0.80
2018-12-29T03:09:51.209Z,-0.80
2018-12-29T03:11:54.836Z,-0.70
2018-12-29T03:13:58.525Z,-0.70
2018-12-29T03:16:02.251Z,-0.70
2018-12-29T03:18:05.928Z,-0.70
2018-12-29T03:20:09.707Z,-0.70
2018-12-29T03:22:13.305Z,-0.70
2018-12-29T03:24:17.019Z,-0.70
2018-12-29T03:26:20.754Z,-0.70
2018-12-29T03:28:24.476Z,-0.70
2018-12-29T03:30:28.230Z,-0.60
2018-12-29T03:32:31.959Z,-0.70
2018-12-29T03:34:35.679Z,-0.70
2018-12-29T03:36:39.404Z,-0.70
2018-12-29T03:38:43.022Z,-0.70
2018-12-29T03:40:46.719Z,-0.70
2018-12-29T03:42:50.449Z,-0.70
2018-12-29T03:44:54.131Z,-0.70
2018-12-29T03:46:57.782Z,-0.70
2018-12-29T03:49:01.484Z,-0.70
2018-12-29T03:51:05.266Z,-0.70
2018-12-29T03:53:09.030Z,-0.60
2018-12-29T03:55:12.831Z,-0.70
2018-12-29T03:57:16.493Z,-0.60
2018-12-29T03:59:20.312Z,-0.60
2018-12-29T04:01:23.995Z,-0.60
2018-12-29T04:03:27.579Z,-0.70
2018-12-29T04:05:31.439Z,-0.60
2018-12-29T04:07:35.029Z,-0.60
2018-12-29T04:09:38.772Z,-0.70
2018-12-29T04:11:42.474Z,-0.60
2018-12-29T04:13:46.168Z,-0.70
2018-12-29T04:15:57.690Z,-0.60
2018-12-29T04:17:55.283Z,-0.60
2018-12-29T04:19:59.013Z,-0.60
2018-12-29T04:22:02.846Z,-0.60
2018-12-29T04:24:06.611Z,-0.60
2018-12-29T04:26:10.408Z,-0.60
2018-12-29T04:28:14.091Z,-0.60
2018-12-29T04:30:17.833Z,-0.50
2018-12-29T04:32:21.599Z,-0.50
2018-12-29T04:34:25.196Z,-0.50
2018-12-29T04:36:28.974Z,-0.50
2018-12-29T04:38:32.730Z,-0.50
2018-12-29T04:40:36.327Z,-0.50
2018-12-29T04:42:40.016Z,-0.50
2018-12-29T04:44:45.329Z,-0.50
2018-12-29T04:46:49.093Z,-0.40
2018-12-29T04:48:52.844Z,-0.40
2018-12-29T04:50:56.513Z,-0.40
2018-12-29T04:53:00.102Z,-0.50
2018-12-29T04:55:03.933Z,-0.50
2018-12-29T04:57:07.629Z,-0.50
2018-12-29T04:59:11.306Z,-0.50
2018-12-29T05:01:14.956Z,-0.50
2018-12-29T05:03:18.542Z,-0.50
2018-12-29T05:05:22.197Z,-0.50
2018-12-29T05:07:25.894Z,-0.50
2018-12-29T05:09:29.492Z,-0.50
2018-12-29T05:11:33.277Z,-0.50
2018-12-29T05:13:36.875Z,-0.50
2018-12-29T05:15:40.596Z,-0.50
2018-12-29T05:17:44.368Z,-0.50
2018-12-29T05:19:47.965Z,-0.40
2018-12-29T05:21:51.676Z,-0.50
2018-12-29T05:23:55.357Z,-0.50
2018-12-29T05:25:59.081Z,-0.50
2018-12-29T05:28:02.826Z,-0.50
2018-12-29T05:30:06.741Z,-0.50
2018-12-29T05:32:10.376Z,-0.50
2018-12-29T05:34:14.041Z,-0.50
2018-12-29T05:36:17.785Z,-0.50
2018-12-29T05:38:21.506Z,-0.50
2018-12-29T05:40:25.137Z,-0.50
2018-12-29T05:42:28.878Z,-0.40
2018-12-29T05:44:32.553Z,-0.40
2018-12-29T05:46:36.306Z,-0.40
2018-12-29T05:48:40.108Z,-0.40
2018-12-29T05:50:43.881Z,-0.40
2018-12-29T05:52:47.552Z,-0.30
2018-12-29T05:54:51.240Z,-0.40
2018-12-29T05:56:56.241Z,-0.40
2018-12-29T05:58:59.993Z,-0.40
2018-12-29T06:01:03.749Z,-0.30
2018-12-29T06:03:07.489Z,-0.30
2018-12-29T06:05:11.178Z,-0.30
2018-12-29T06:07:14.832Z,-0.30
2018-12-29T06:09:18.448Z,-0.30
2018-12-29T06:11:22.294Z,-0.30
2018-12-29T06:13:25.952Z,-0.30
2018-12-29T06:15:29.641Z,-0.30
2018-12-29T06:17:33.316Z,-0.30
2018-12-29T06:19:37.113Z,-0.40
2018-12-29T06:21:40.832Z,-0.30
2018-12-29T06:23:44.533Z,-0.30
2018-12-29T06:25:48.232Z,-0.30
2018-12-29T06:27:51.903Z,-0.30
2018-12-29T06:29:55.607Z,-0.30
2018-12-29T06:31:59.308Z,-0.30
2018-12-29T06:34:03.105Z,-0.30
2018-12-29T06:36:06.970Z,-0.30
2018-12-29T06:38:10.581Z,-0.30
2018-12-29T06:40:14.206Z,-0.20
2018-12-29T06:42:17.997Z,-0.20
2018-12-29T06:44:21.664Z,-0.20
2018-12-29T06:46:26.181Z,-0.20
2018-12-29T06:48:29.902Z,-0.20
2018-12-29T06:50:33.692Z,-0.20
2018-12-29T06:52:37.301Z,-0.20
2018-12-29T06:54:41.082Z,-0.20
2018-12-29T06:56:44.902Z,-0.20
2018-12-29T06:58:48.533Z,-0.20
2018-12-29T07:00:52.163Z,-0.20
2018-12-29T07:02:55.824Z,-0.20
2018-12-29T07:04:59.539Z,-0.20
2018-12-29T07:07:03.225Z,-0.20
2018-12-29T07:09:07.579Z,-0.20
2018-12-29T07:11:11.249Z,-0.20
2018-12-29T07:13:14.926Z,-0.20
2018-12-29T07:15:18.695Z,-0.20
2018-12-29T07:17:22.462Z,-0.20
2018-12-29T07:19:26.242Z,-0.20
2018-12-29T07:21:29.977Z,-0.20
2018-12-29T07:23:33.650Z,-0.20
2018-12-29T07:25:37.463Z,-0.20
2018-12-29T07:27:41.295Z,-0.10
2018-12-29T07:29:44.955Z,-0.10
2018-12-29T07:31:48.695Z,0.00
2018-12-29T07:33:52.399Z,0.00
2018-12-29T07:35:56.173Z,0.00
2018-12-29T07:37:59.853Z,0.00
2018-12-29T07:40:04.116Z,0.00
2018-12-29T07:42:07.824Z,0.00
2018-12-29T07:44:11.538Z,0.10
2018-12-29T07:46:15.365Z,0.10
2018-12-29T07:48:19.012Z,0.10
2018-12-29T07:50:22.769Z,0.10
2018-12-29T07:52:26.547Z,0.00
2018-12-29T07:54:30.280Z,0.10
2018-12-29T07:56:33.931Z,0.10
2018-12-29T07:58:37.577Z,0.00
2018-12-29T08:00:41.244Z,0.00
2018-12-29T08:02:45.046Z,0.00
2018-12-29T08:04:48.799Z,0.10
2018-12-29T08:06:52.556Z,0.10
2018-12-29T08:08:56.288Z,0.10
2018-12-29T08:11:00.071Z,0.10
2018-12-29T08:13:03.871Z,0.10
2018-12-29T08:15:07.487Z,0.10
2018-12-29T08:17:11.212Z,0.10
2018-12-29T08:19:15.748Z,0.20
2018-12-29T08:21:19.531Z,0.20
2018-12-29T08:23:23.314Z,0.20
2018-12-29T08:25:26.982Z,0.20
2018-12-29T08:27:30.741Z,0.20
2018-12-29T08:29:35.222Z,0.20
2018-12-29T08:31:38.800Z,0.20
2018-12-29T08:33:43.178Z,0.20
2018-12-29T08:35:47.012Z,0.20
2018-12-29T08:37:50.765Z,0.20
2018-12-29T08:39:54.460Z,0.20
2018-12-29T08:41:58.275Z,0.20
2018-12-29T08:44:02.256Z,0.20
2018-12-29T08:46:05.897Z,0.20
2018-12-29T08:48:09.942Z,0.20
2018-12-29T08:50:13.916Z,0.20
2018-12-29T08:52:19.289Z,0.20
2018-12-29T08:54:23.102Z,0.30
2018-12-29T08:56:26.875Z,0.30
2018-12-29T08:58:30.653Z,0.30
2018-12-29T09:00:34.525Z,0.30
2018-12-29T09:02:38.290Z,0.30
2018-12-29T09:04:42.032Z,0.40
2018-12-29T09:06:45.932Z,0.40
2018-12-29T09:08:49.683Z,0.30
2018-12-29T09:10:53.496Z,0.30
2018-12-29T09:12:57.406Z,0.30
2018-12-29T09:15:01.073Z,0.40
2018-12-29T09:17:11.897Z,0.40
2018-12-29T09:19:10.271Z,0.40
2018-12-29T09:21:13.925Z,0.50
2018-12-29T09:23:17.565Z,0.50
2018-12-29T09:25:21.243Z,0.60
2018-12-29T09:27:26.502Z,0.60
2018-12-29T09:29:30.270Z,0.60
2018-12-29T09:31:34.094Z,0.50
2018-12-29T09:33:38.634Z,0.50
2018-12-29T09:35:44.016Z,0.60
2018-12-29T09:37:47.792Z,0.60
2018-12-29T09:39:52.204Z,0.60
2018-12-29T09:41:56.623Z,0.60
2018-12-29T09:44:02.008Z,0.60
2018-12-29T09:46:06.658Z,0.70
2018-12-29T09:48:11.044Z,0.60
2018-12-29T09:50:15.982Z,0.70
2018-12-29T09:52:21.270Z,0.70
2018-12-29T09:54:25.090Z,0.70
2018-12-29T09:56:29.422Z,0.70
2018-12-29T09:58:33.282Z,0.70
2018-12-29T10:00:37.860Z,0.70
2018-12-29T10:02:41.733Z,0.70
2018-12-29T10:04:46.011Z,0.80
2018-12-29T10:06:50.382Z,0.90
2018-12-29T10:08:55.991Z,0.90
2018-12-29T10:11:04.524Z,0.90
2018-12-29T10:13:12.903Z,0.90
2018-12-29T10:15:16.779Z,0.90
2018-12-29T10:17:26.888Z,0.90
2018-12-29T10:19:30.707Z,0.90
2018-12-29T10:21:36.088Z,0.90
2018-12-29T10:23:41.992Z,0.90
2018-12-29T10:25:47.775Z,0.90
2018-12-29T10:27:51.662Z,0.90
2018-12-29T10:29:55.855Z,1.00
2018-12-29T10:31:59.571Z,1.00
2018-12-29T10:34:03.319Z,1.00
2018-12-29T10:36:07.095Z,1.10
2018-12-29T10:38:10.864Z,1.00
2018-12-29T10:40:15.689Z,1.10
2018-12-29T10:42:19.462Z,1.10
2018-12-29T10:44:23.196Z,1.10
2018-12-29T10:46:26.911Z,1.10
2018-12-29T10:48:30.722Z,1.20
2018-12-29T10:50:34.381Z,1.20
2018-12-29T10:52:38.117Z,1.20
2018-12-29T10:54:41.848Z,1.20
2018-12-29T10:56:45.622Z,1.20
2018-12-29T10:58:49.372Z,1.20
2018-12-29T11:00:53.074Z,1.20
2018-12-29T11:02:56.772Z,1.20
2018-12-29T11:05:00.473Z,1.20
2018-12-29T11:07:04.372Z,1.30
2018-12-29T11:09:08.101Z,1.30
2018-12-29T11:11:11.807Z,1.30
2018-12-29T11:13:15.507Z,1.30
2018-12-29T11:15:19.159Z,1.30
2018-12-29T11:17:22.851Z,1.30
2018-12-29T11:19:27.335Z,1.30
2018-12-29T11:21:31.081Z,1.30
2018-12-29T11:23:34.746Z,1.40
2018-12-29T11:25:38.557Z,1.40
2018-12-29T11:27:42.301Z,1.40
2018-12-29T11:29:45.973Z,1.50
2018-12-29T11:31:49.670Z,1.60
2018-12-29T11:33:53.385Z,1.60
2018-12-29T11:35:57.071Z,1.60
2018-12-29T11:38:00.905Z,1.60
2018-12-29T11:40:05.746Z,1.70
2018-12-29T11:42:09.549Z,1.70
2018-12-29T11:44:13.341Z,1.70
2018-12-29T11:46:16.981Z,1.60
2018-12-29T11:48:22.304Z,1.60
2018-12-29T11:50:26.039Z,1.60
2018-12-29T11:52:29.842Z,1.60
2018-12-29T11:54:33.493Z,1.60
2018-12-29T11:56:37.180Z,1.60
2018-12-29T11:58:41.295Z,1.70
2018-12-29T12:00:44.977Z,1.70
2018-12-29T12:02:48.730Z,1.70
2018-12-29T12:04:52.543Z,1.60
2018-12-29T12:06:56.434Z,1.60
2018-12-29T12:09:00.104Z,1.70
2018-12-29T12:11:04.413Z,1.60
2018-12-29T12:13:08.127Z,1.60
2018-12-29T12:15:11.756Z,1.60
2018-12-29T12:17:15.478Z,1.60
2018-12-29T12:19:19.072Z,1.70
2018-12-29T12:21:22.923Z,1.70
2018-12-29T12:23:28.974Z,1.70
2018-12-29T12:25:32.942Z,1.70
2018-12-29T12:27:37.078Z,1.70
2018-12-29T12:29:40.795Z,1.70
2018-12-29T12:31:44.451Z,1.70
2018-12-29T12:33:48.261Z,1.70
2018-12-29T12:35:51.993Z,1.80
2018-12-29T12:37:56.065Z,1.70
2018-12-29T12:40:00.779Z,1.70
2018-12-29T12:42:06.276Z,1.70
2018-12-29T12:44:09.990Z,1.70
2018-12-29T12:46:14.013Z,1.70
2018-12-29T12:48:17.744Z,1.70
2018-12-29T12:50:21.744Z,1.70
2018-12-29T12:52:25.470Z,1.70
2018-12-29T12:54:29.255Z,1.80
2018-12-29T12:56:32.964Z,1.80
2018-12-29T12:58:36.735Z,1.80
2018-12-29T13:00:40.911Z,1.80
2018-12-29T13:02:45.071Z,1.80
2018-12-29T13:04:50.575Z,1.80
2018-12-29T13:06:54.307Z,1.80
2018-12-29T13:08:57.998Z,1.80
2018-12-29T13:11:02.256Z,1.90
2018-12-29T13:13:05.931Z,1.90
2018-12-29T13:15:09.706Z,1.90
2018-12-29T13:17:13.463Z,1.90
2018-12-29T13:19:17.182Z,1.90
2018-12-29T13:21:20.887Z,1.90
2018-12-29T13:23:24.856Z,2.00
2018-12-29T13:25:28.702Z,1.90
2018-12-29T13:27:32.254Z,1.90
2018-12-29T13:29:36.055Z,1.90
2018-12-29T13:31:39.821Z,1.90
2018-12-29T13:33:45.857Z,1.90
2018-12-29T13:35:49.873Z,1.90
2018-12-29T13:37:53.731Z,1.90
2018-12-29T13:39:57.734Z,1.90
2018-12-29T13:42:01.384Z,1.90
2018-12-29T13:44:05.215Z,2.00
2018-12-29T13:46:09.127Z,2.00
2018-12-29T13:48:20.419Z,2.00
2018-12-29T13:50:18.411Z,2.00
2018-12-29T13:52:22.175Z,2.00
2018-12-29T13:54:25.983Z,1.90
2018-12-29T13:56:29.781Z,1.90
2018-12-29T13:58:33.441Z,2.00
2018-12-29T14:00:37.316Z,1.90
2018-12-29T14:02:41.158Z,1.90
2018-12-29T14:04:44.949Z,1.90
2018-12-29T14:06:48.779Z,1.90
2018-12-29T14:08:52.519Z,1.90
2018-12-29T14:10:56.326Z,1.90
2018-12-29T14:13:00.108Z,1.80
2018-12-29T14:15:04.284Z,1.70
2018-12-29T14:17:08.279Z,1.70
2018-12-29T14:19:12.333Z,1.70
2018-12-29T14:21:16.159Z,1.70
2018-12-29T14:23:19.857Z,1.70
2018-12-29T14:25:23.636Z,1.70
2018-12-29T14:27:27.802Z,1.80
2018-12-29T14:29:31.753Z,1.80
2018-12-29T14:31:35.931Z,1.80
2018-12-29T14:33:39.631Z,1.70
2018-12-29T14:35:43.629Z,1.60
2018-12-29T14:37:48.272Z,1.70
2018-12-29T14:39:52.228Z,1.70
2018-12-29T14:41:55.855Z,1.70
2018-12-29T14:43:59.528Z,1.70
2018-12-29T14:46:03.311Z,1.70
2018-12-29T14:48:06.900Z,1.60
2018-12-29T14:50:13.627Z,1.60
2018-12-29T14:52:17.305Z,1.50
2018-12-29T14:54:20.993Z,1.50
2018-12-29T14:56:24.775Z,1.60
2018-12-29T14:58:28.591Z,1.50
2018-12-29T15:00:32.425Z,1.60
2018-12-29T15:02:36.288Z,1.50
2018-12-29T15:04:40.107Z,1.50
2018-12-29T15:06:43.754Z,1.50
2018-12-29T15:08:47.482Z,1.50
2018-12-29T15:10:51.197Z,1.60
2018-12-29T15:12:55.415Z,1.60
2018-12-29T15:14:59.160Z,1.50
2018-12-29T15:17:03.010Z,1.50
2018-12-29T15:19:06.687Z,1.50
2018-12-29T15:21:10.717Z,1.50
2018-12-29T15:23:14.485Z,1.50
2018-12-29T15:25:18.172Z,1.50
2018-12-29T15:27:22.093Z,1.50
2018-12-29T15:29:25.761Z,1.50
2018-12-29T15:31:29.496Z,1.60
2018-12-29T15:33:33.291Z,1.60
2018-12-29T15:35:37.069Z,1.60
2018-12-29T15:37:41.068Z,1.50
2018-12-29T15:39:44.833Z,1.50
2018-12-29T15:41:49.244Z,1.50
2018-12-29T15:43:52.982Z,1.50
2018-12-29T15:45:56.638Z,1.50
2018-12-29T15:48:00.675Z,1.60
2018-12-29T15:50:07.173Z,1.60
2018-12-29T15:52:12.877Z,1.60
2018-12-29T15:54:17.207Z,1.70
2018-12-29T15:56:20.853Z,1.70
2018-12-29T15:58:24.580Z,1.60
2018-12-29T16:00:28.267Z,1.60
2018-12-29T16:02:31.956Z,1.60
2018-12-29T16:04:36.100Z,1.60
2018-12-29T16:06:39.763Z,1.70
2018-12-29T16:08:43.574Z,1.60
2018-12-29T16:10:47.304Z,1.60
2018-12-29T16:12:51.040Z,1.60
2018-12-29T16:14:56.738Z,1.60
2018-12-29T16:17:00.508Z,1.60
2018-12-29T16:19:04.261Z,1.60
2018-12-29T16:21:08.026Z,1.60
2018-12-29T16:23:13.264Z,1.60
2018-12-29T16:25:17.404Z,1.60
2018-12-29T16:27:21.156Z,1.50
2018-12-29T16:29:24.951Z,1.50
2018-12-29T16:31:28.764Z,1.50
2018-12-29T16:33:32.813Z,1.50
2018-12-29T16:35:37.424Z,1.50
2018-12-29T16:37:41.271Z,1.50
2018-12-29T16:39:45.230Z,1.50
2018-12-29T16:41:49.033Z,1.50
2018-12-29T16:43:53.140Z,1.60
2018-12-29T16:45:56.920Z,1.60
2018-12-29T16:48:00.655Z,1.60
2018-12-29T16:50:05.240Z,1.50
2018-12-29T16:52:11.875Z,1.50
2018-12-29T16:54:15.716Z,1.50
2018-12-29T16:56:19.721Z,1.50
2018-12-29T16:58:23.498Z,1.50
2018-12-29T17:00:27.887Z,1.50
2018-12-29T17:02:31.513Z,1.50
2018-12-29T17:04:35.302Z,1.60
2018-12-29T17:06:39.042Z,1.50
2018-12-29T17:08:42.726Z,1.50
2018-12-29T17:10:46.466Z,1.50
2018-12-29T17:12:50.268Z,1.60
2018-12-29T17:14:53.955Z,1.50
2018-12-29T17:16:57.627Z,1.60
2018-12-29T17:19:01.298Z,1.60
2018-12-29T17:21:05.153Z,1.60
2018-12-29T17:23:08.862Z,1.50
2018-12-29T17:25:12.896Z,1.60
2018-12-29T17:27:16.504Z,1.60
2018-12-29T17:29:21.806Z,1.60
2018-12-29T17:31:25.868Z,1.50
2018-12-29T17:33:29.523Z,1.60
2018-12-29T17:35:35.354Z,1.60
2018-12-29T17:37:40.234Z,1.70
2018-12-29T17:39:44.141Z,1.70
2018-12-29T17:41:48.433Z,1.70
2018-12-29T17:43:52.234Z,1.70
2018-12-29T17:45:56.084Z,1.70
2018-12-29T17:47:59.824Z,1.70
2018-12-29T17:50:04.326Z,1.80
2018-12-29T17:52:08.390Z,1.70
2018-12-29T17:54:12.072Z,1.80
2018-12-29T17:56:16.079Z,1.90
2018-12-29T17:58:19.935Z,1.90
2018-12-29T18:00:23.684Z,1.90
2018-12-29T18:02:27.364Z,2.00
2018-12-29T18:04:31.109Z,2.00
2018-12-29T18:06:35.026Z,2.00
2018-12-29T18:08:39.274Z,2.00
2018-12-29T18:10:44.005Z,2.00
2018-12-29T18:12:47.908Z,2.00
2018-12-29T18:14:51.838Z,2.00
2018-12-29T18:16:55.822Z,2.00
2018-12-29T18:18:59.539Z,2.00
2018-12-29T18:21:04.610Z,2.10
2018-12-29T18:23:08.842Z,2.10
2018-12-29T18:25:12.601Z,2.10
2018-12-29T18:27:18.224Z,2.10
2018-12-29T18:29:22.075Z,2.10
2018-12-29T18:31:26.278Z,2.10
2018-12-29T18:33:37.052Z,2.20
2018-12-29T18:35:35.713Z,2.20
2018-12-29T18:37:39.485Z,2.20
2018-12-29T18:39:43.234Z,2.20
2018-12-29T18:41:47.138Z,2.30
2018-12-29T18:43:51.013Z,2.30
2018-12-29T18:45:54.702Z,2.20
2018-12-29T18:47:58.698Z,2.20
2018-12-29T18:50:02.516Z,2.30
2018-12-29T18:52:06.325Z,2.30
2018-12-29T18:54:10.043Z,2.30
2018-12-29T18:56:13.637Z,2.40
2018-12-29T18:58:17.647Z,2.40
2018-12-29T19:00:21.400Z,2.40
2018-12-29T19:02:25.021Z,2.40
2018-12-29T19:04:28.736Z,2.50
2018-12-29T19:06:32.525Z,2.50
2018-12-29T19:08:36.165Z,2.50
2018-12-29T19:10:39.820Z,2.50
2018-12-29T19:12:44.614Z,2.40
2018-12-29T19:14:48.424Z,2.50
2018-12-29T19:16:52.178Z,2.40
2018-12-29T19:18:56.358Z,2.40
2018-12-29T19:21:00.565Z,2.40
2018-12-29T19:23:04.579Z,2.40
2018-12-29T19:25:08.306Z,2.40
2018-12-29T19:27:12.024Z,2.40
2018-12-29T19:29:16.179Z,2.40
2018-12-29T19:31:19.945Z,2.40
2018-12-29T19:33:23.819Z,2.30
2018-12-29T19:35:27.913Z,2.40
2018-12-29T19:37:31.616Z,2.30
2018-12-29T19:39:35.310Z,2.30
2018-12-29T19:41:46.381Z,2.30
2018-12-29T19:43:44.276Z,2.40
2018-12-29T19:45:48.219Z,2.40
2018-12-29T19:47:51.955Z,2.40
2018-12-29T19:49:56.230Z,2.40
2018-12-29T19:51:59.972Z,2.40
2018-12-29T19:54:04.494Z,2.40
2018-12-29T19:56:08.295Z,2.40
2018-12-29T19:58:12.099Z,2.50
2018-12-29T20:00:16.159Z,2.50
2018-12-29T20:02:20.139Z,2.50
2018-12-29T20:04:24.250Z,2.60
2018-12-29T20:06:28.456Z,2.60
2018-12-29T20:08:32.184Z,2.60
2018-12-29T20:10:36.042Z,2.70
2018-12-29T20:12:40.190Z,2.60
2018-12-29T20:14:44.149Z,2.60
2018-12-29T20:16:47.951Z,2.60
2018-12-29T20:18:51.673Z,2.50
2018-12-29T20:20:55.588Z,2.60
2018-12-29T20:23:00.482Z,2.60
2018-12-29T20:25:05.378Z,2.60
2018-12-29T20:27:09.002Z,2.60
2018-12-29T20:29:12.760Z,2.60
2018-12-29T20:31:16.448Z,2.60
2018-12-29T20:33:20.181Z,2.60
2018-12-29T20:35:24.035Z,2.60
2018-12-29T20:37:27.843Z,2.60
2018-12-29T20:39:31.643Z,2.60
2018-12-29T20:41:35.399Z,2.60
2018-12-29T20:43:38.999Z,2.60
2018-12-29T20:45:42.682Z,2.60
2018-12-29T20:47:46.561Z,2.60
2018-12-29T20:49:50.307Z,2.60
2018-12-29T20:51:54.066Z,2.60
2018-12-29T20:53:57.777Z,2.60
2018-12-29T20:56:01.793Z,2.60
2018-12-29T20:58:05.473Z,2.60
2018-12-29T21:00:10.109Z,2.60
2018-12-29T21:02:14.060Z,2.60
2018-12-29T21:04:17.810Z,2.60
2018-12-29T21:06:23.236Z,2.60
2018-12-29T21:08:26.987Z,2.60
2018-12-29T21:10:30.989Z,2.60
2018-12-29T21:12:35.699Z,2.60
2018-12-29T21:14:39.681Z,2.60
2018-12-29T21:16:43.450Z,2.60
2018-12-29T21:18:48.259Z,2.60
2018-12-29T21:20:52.065Z,2.60
2018-12-29T21:22:56.198Z,2.60
2018-12-29T21:25:00.440Z,2.70
2018-12-29T21:27:04.319Z,2.60
2018-12-29T21:29:08.096Z,2.60
2018-12-29T21:31:11.793Z,2.60
2018-12-29T21:33:15.657Z,2.70
2018-12-29T21:35:19.397Z,2.70
2018-12-29T21:37:23.286Z,2.70
2018-12-29T21:39:27.088Z,2.70
2018-12-29T21:41:30.943Z,2.70
2018-12-29T21:43:34.634Z,2.70
2018-12-29T21:45:38.744Z,2.70
2018-12-29T21:47:42.516Z,2.70
2018-12-29T21:49:46.327Z,2.70
2018-12-29T21:51:50.106Z,2.70
2018-12-29T21:53:53.915Z,2.70
2018-12-29T21:55:58.001Z,2.70
2018-12-29T21:58:01.702Z,2.80
2018-12-29T22:00:08.668Z,2.80
2018-12-29T22:02:12.748Z,2.80
2018-12-29T22:04:16.494Z,2.80
2018-12-29T22:06:20.293Z,2.80
2018-12-29T22:08:24.697Z,2.80
2018-12-29T22:10:28.294Z,2.70
2018-12-29T22:12:32.007Z,2.80
2018-12-29T22:14:35.800Z,2.80
2018-12-29T22:16:39.553Z,2.80
2018-12-29T22:18:43.378Z,2.80
2018-12-29T22:20:46.982Z,2.80
2018-12-29T22:22:50.831Z,2.70
2018-12-29T22:24:54.627Z,2.80
2018-12-29T22:26:58.428Z,2.70
2018-12-29T22:29:03.799Z,2.70
2018-12-29T22:31:07.670Z,2.70
2018-12-29T22:33:11.316Z,2.80
2018-12-29T22:35:15.137Z,2.80
2018-12-29T22:37:18.750Z,2.80
2018-12-29T22:39:22.472Z,2.80
2018-12-29T22:41:26.137Z,2.80
2018-12-29T22:43:31.208Z,2.90
2018-12-29T22:45:34.777Z,2.80
2018-12-29T22:47:38.427Z,2.80
2018-12-29T22:49:42.127Z,2.80
2018-12-29T22:51:45.813Z,2.90
2018-12-29T22:53:49.834Z,2.90
2018-12-29T22:55:53.542Z,2.90
2018-12-29T22:57:57.309Z,2.80
2018-12-29T23:00:01.165Z,2.80
2018-12-29T23:02:05.034Z,2.90
2018-12-29T23:04:08.823Z,2.80
2018-12-29T23:06:12.535Z,2.90
2018-12-29T23:08:16.161Z,2.90
2018-12-29T23:10:19.929Z,2.90
2018-12-29T23:12:24.013Z,2.90
2018-12-29T23:14:27.894Z,2.90
2018-12-29T23:16:32.569Z,3.00
2018-12-29T23:18:36.706Z,3.00
2018-12-29T23:20:48.827Z,2.90
2018-12-29T23:22:46.434Z,2.90
2018-12-29T23:24:50.295Z,2.90
2018-12-29T23:26:54.213Z,2.90
2018-12-29T23:28:58.352Z,3.00
2018-12-29T23:31:02.313Z,3.00
2018-12-29T23:33:06.038Z,2.90
2018-12-29T23:35:09.800Z,3.00
2018-12-29T23:37:13.560Z,2.90
2018-12-29T23:39:17.397Z,3.00
2018-12-29T23:41:21.661Z,3.00
2018-12-29T23:43:25.789Z,3.00
2018-12-29T23:45:29.491Z,3.00
2018-12-29T23:47:33.155Z,3.00
2018-12-29T23:49:36.996Z,3.00
2018-12-29T23:51:41.061Z,2.90
2018-12-29T23:53:45.317Z,2.90
2018-12-29T23:55:49.601Z,2.90
2018-12-29T23:57:53.342Z,2.90
2018-12-29T23:59:57.056Z,2.90
